Aviation Digital Data Service (ADDS)

Output produced by METARs form (1955 UTC 02 October 2022)
found at http://www.aviationweather.gov/metar/data/
 
METAR text: RJGG 021930Z AUTO 07005KT 9999 NSC 22/18 Q1021 NOSIG
Conditions at: RJGG (NAGOYA/CHUBU , JP) observed 1930 UTC 02 October 2022
Temperature: 22.0°C (72°F)
Dewpoint: 18.0°C (64°F) [RH = 78%]
Pressure (altimeter): 30.15 inches Hg (1021.0 mb)
Winds: from the ENE (70 degrees) at 6 MPH (5 knots; 2.6 m/s)
Visibility: 6 or more miles (10+ km)
Ceiling: at least 12,000 feet AGL
Clouds: sky clear below 12,000 feet AGL
Weather: no significant weather observed at this time

METAR text: RJGG 021900Z AUTO 04005KT 9999 NSC 22/18 Q1021 NOSIG
Conditions at: RJGG (NAGOYA/CHUBU , JP) observed 1900 UTC 02 October 2022
Temperature: 22.0°C (72°F)
Dewpoint: 18.0°C (64°F) [RH = 78%]
Pressure (altimeter): 30.15 inches Hg (1021.0 mb)
Winds: from the NE (40 degrees) at 6 MPH (5 knots; 2.6 m/s)
Visibility: 6 or more miles (10+ km)
Ceiling: at least 12,000 feet AGL
Clouds: sky clear below 12,000 feet AGL
Weather: no significant weather observed at this time

METAR text: RJGG 021830Z AUTO 05005KT 9999 FEW170 SCT180 BKN190 //////TCU 22/18 Q1021 NOSIG
Conditions at: RJGG (NAGOYA/CHUBU , JP) observed 1830 UTC 02 October 2022
Temperature: 22.0°C (72°F)
Dewpoint: 18.0°C (64°F) [RH = 78%]
Pressure (altimeter): 30.15 inches Hg (1021.0 mb)
Winds: from the NE (50 degrees) at 6 MPH (5 knots; 2.6 m/s)
Visibility: 6 or more miles (10+ km)
Ceiling: 19000 feet AGL
Clouds: few clouds at 17000 feet AGL
scattered clouds at 18000 feet AGL
broken clouds at 19000 feet AGL
Weather: no significant weather observed at this time

METAR text: RJGG 021800Z AUTO 03004KT 9999 BKN190 BKN200 BKN220 //////TCU 22/19 Q1021 NOSIG
Conditions at: RJGG (NAGOYA/CHUBU , JP) observed 1800 UTC 02 October 2022
Temperature: 22.0°C (72°F)
Dewpoint: 19.0°C (66°F) [RH = 83%]
Pressure (altimeter): 30.15 inches Hg (1021.0 mb)
Winds: from the NNE (30 degrees) at 5 MPH (4 knots; 2.1 m/s)
Visibility: 6 or more miles (10+ km)
Ceiling: 19000 feet AGL
Clouds: broken clouds at 19000 feet AGL
broken clouds at 20000 feet AGL
broken clouds at 22000 feet AGL
Weather: no significant weather observed at this time

METAR text: RJGG 021730Z AUTO 06004KT 9999 FEW031 SCT190 BKN200 23/19 Q1021 NOSIG
Conditions at: RJGG (NAGOYA/CHUBU , JP) observed 1730 UTC 02 October 2022
Temperature: 23.0°C (73°F)
Dewpoint: 19.0°C (66°F) [RH = 78%]
Pressure (altimeter): 30.15 inches Hg (1021.0 mb)
Winds: from the ENE (60 degrees) at 5 MPH (4 knots; 2.1 m/s)
Visibility: 6 or more miles (10+ km)
Ceiling: 20000 feet AGL
Clouds: few clouds at 3100 feet AGL
scattered clouds at 19000 feet AGL
broken clouds at 20000 feet AGL
Weather: no significant weather observed at this time

METAR text: RJGG 021700Z AUTO 11003KT 090V180 9999 FEW035 BKN190 BKN200 23/19 Q1021 BECMG 06005KT
Conditions at: RJGG (NAGOYA/CHUBU , JP) observed 1700 UTC 02 October 2022
Temperature: 23.0°C (73°F)
Dewpoint: 19.0°C (66°F) [RH = 78%]
Pressure (altimeter): 30.15 inches Hg (1021.0 mb)
Winds: from the ESE (110 degrees) at 3 MPH (3 knots; 1.5 m/s)
Visibility: 6 or more miles (10+ km)
Ceiling: 19000 feet AGL
Clouds: few clouds at 3500 feet AGL
broken clouds at 19000 feet AGL
broken clouds at 20000 feet AGL
Weather: no significant weather observed at this time

METAR text: RJGG 021630Z AUTO VRB02KT 9999 FEW035 SCT039 BKN190 22/20 Q1021 NOSIG
Conditions at: RJGG (NAGOYA/CHUBU , JP) observed 1630 UTC 02 October 2022
Temperature: 22.0°C (72°F)
Dewpoint: 20.0°C (68°F) [RH = 88%]
Pressure (altimeter): 30.15 inches Hg (1021.0 mb)
Winds: variable direction winds at 2 MPH (2 knots; 1.0 m/s)
Visibility: 6 or more miles (10+ km)
Ceiling: 19000 feet AGL
Clouds: few clouds at 3500 feet AGL
scattered clouds at 3900 feet AGL
broken clouds at 19000 feet AGL
Weather: no significant weather observed at this time

METAR text: RJGG 021600Z AUTO VRB02KT 9999 FEW031 BKN200 OVC230 22/21 Q1021 NOSIG
Conditions at: RJGG (NAGOYA/CHUBU , JP) observed 1600 UTC 02 October 2022
Temperature: 22.0°C (72°F)
Dewpoint: 21.0°C (70°F) [RH = 94%]
Pressure (altimeter): 30.15 inches Hg (1021.0 mb)
Winds: variable direction winds at 2 MPH (2 knots; 1.0 m/s)
Visibility: 6 or more miles (10+ km)
Ceiling: 20000 feet AGL
Clouds: few clouds at 3100 feet AGL
broken clouds at 20000 feet AGL
overcast cloud deck at 23000 feet AGL
Weather: no significant weather observed at this time

METAR text: RJGG 021530Z AUTO 15005KT 9999 NSC 23/20 Q1021 NOSIG
Conditions at: RJGG (NAGOYA/CHUBU , JP) observed 1530 UTC 02 October 2022
Temperature: 23.0°C (73°F)
Dewpoint: 20.0°C (68°F) [RH = 83%]
Pressure (altimeter): 30.15 inches Hg (1021.0 mb)
Winds: from the SSE (150 degrees) at 6 MPH (5 knots; 2.6 m/s)
Visibility: 6 or more miles (10+ km)
Ceiling: at least 12,000 feet AGL
Clouds: sky clear below 12,000 feet AGL
Weather: no significant weather observed at this time

METAR text: RJGG 021500Z AUTO 11007KT 9999 NSC 23/21 Q1020 NOSIG
Conditions at: RJGG (NAGOYA/CHUBU , JP) observed 1500 UTC 02 October 2022
Temperature: 23.0°C (73°F)
Dewpoint: 21.0°C (70°F) [RH = 89%]
Pressure (altimeter): 30.12 inches Hg (1020.0 mb)
Winds: from the ESE (110 degrees) at 8 MPH (7 knots; 3.6 m/s)
Visibility: 6 or more miles (10+ km)
Ceiling: at least 12,000 feet AGL
Clouds: sky clear below 12,000 feet AGL
Weather: no significant weather observed at this time

METAR text: RJGG 021430Z AUTO 13006KT 9999 NSC 23/19 Q1021 NOSIG
Conditions at: RJGG (NAGOYA/CHUBU , JP) observed 1430 UTC 02 October 2022
Temperature: 23.0°C (73°F)
Dewpoint: 19.0°C (66°F) [RH = 78%]
Pressure (altimeter): 30.15 inches Hg (1021.0 mb)
Winds: from the SE (130 degrees) at 7 MPH (6 knots; 3.1 m/s)
Visibility: 6 or more miles (10+ km)
Ceiling: at least 12,000 feet AGL
Clouds: sky clear below 12,000 feet AGL
Weather: no significant weather observed at this time

METAR text: RJGG 021400Z AUTO 14007KT 9999 NSC 23/20 Q1021 NOSIG
Conditions at: RJGG (NAGOYA/CHUBU , JP) observed 1400 UTC 02 October 2022
Temperature: 23.0°C (73°F)
Dewpoint: 20.0°C (68°F) [RH = 83%]
Pressure (altimeter): 30.15 inches Hg (1021.0 mb)
Winds: from the SE (140 degrees) at 8 MPH (7 knots; 3.6 m/s)
Visibility: 6 or more miles (10+ km)
Ceiling: at least 12,000 feet AGL
Clouds: sky clear below 12,000 feet AGL
Weather: no significant weather observed at this time

METAR text: RJGG 021330Z 15005KT 9999 FEW025 22/20 Q1021 NOSIG
Conditions at: RJGG (NAGOYA/CHUBU , JP) observed 1330 UTC 02 October 2022
Temperature: 22.0°C (72°F)
Dewpoint: 20.0°C (68°F) [RH = 88%]
Pressure (altimeter): 30.15 inches Hg (1021.0 mb)
Winds: from the SSE (150 degrees) at 6 MPH (5 knots; 2.6 m/s)
Visibility: 6 or more miles (10+ km)
Ceiling: at least 12,000 feet AGL
Clouds: few clouds at 2500 feet AGL
Weather: no significant weather observed at this time

METAR text: RJGG 021300Z 15005KT 9999 FEW025 22/20 Q1021 NOSIG
Conditions at: RJGG (NAGOYA/CHUBU , JP) observed 1300 UTC 02 October 2022
Temperature: 22.0°C (72°F)
Dewpoint: 20.0°C (68°F) [RH = 88%]
Pressure (altimeter): 30.15 inches Hg (1021.0 mb)
Winds: from the SSE (150 degrees) at 6 MPH (5 knots; 2.6 m/s)
Visibility: 6 or more miles (10+ km)
Ceiling: at least 12,000 feet AGL
Clouds: few clouds at 2500 feet AGL
Weather: no significant weather observed at this time

METAR text: RJGG 021230Z 14007KT 9999 FEW025 23/20 Q1021 NOSIG
Conditions at: RJGG (NAGOYA/CHUBU , JP) observed 1230 UTC 02 October 2022
Temperature: 23.0°C (73°F)
Dewpoint: 20.0°C (68°F) [RH = 83%]
Pressure (altimeter): 30.15 inches Hg (1021.0 mb)
Winds: from the SE (140 degrees) at 8 MPH (7 knots; 3.6 m/s)
Visibility: 6 or more miles (10+ km)
Ceiling: at least 12,000 feet AGL
Clouds: few clouds at 2500 feet AGL
Weather: no significant weather observed at this time

METAR text: RJGG 021200Z 14008KT 9999 FEW025 SCT/// 23/20 Q1021 NOSIG
Conditions at: RJGG (NAGOYA/CHUBU , JP) observed 1200 UTC 02 October 2022
Temperature: 23.0°C (73°F)
Dewpoint: 20.0°C (68°F) [RH = 83%]
Pressure (altimeter): 30.15 inches Hg (1021.0 mb)
Winds: from the SE (140 degrees) at 9 MPH (8 knots; 4.1 m/s)
Visibility: 6 or more miles (10+ km)
Ceiling: at least 12,000 feet AGL
Clouds: few clouds at 2500 feet AGL
Weather: no significant weather observed at this time

METAR text: RJGG 021130Z 13009KT 9999 FEW025 SCT/// 23/21 Q1021 NOSIG
Conditions at: RJGG (NAGOYA/CHUBU , JP) observed 1130 UTC 02 October 2022
Temperature: 23.0°C (73°F)
Dewpoint: 21.0°C (70°F) [RH = 89%]
Pressure (altimeter): 30.15 inches Hg (1021.0 mb)
Winds: from the SE (130 degrees) at 10 MPH (9 knots; 4.6 m/s)
Visibility: 6 or more miles (10+ km)
Ceiling: at least 12,000 feet AGL
Clouds: few clouds at 2500 feet AGL
Weather: no significant weather observed at this time

METAR text: RJGG 021100Z 14010KT 9999 FEW025 SCT/// 24/21 Q1021 NOSIG
Conditions at: RJGG (NAGOYA/CHUBU , JP) observed 1100 UTC 02 October 2022
Temperature: 24.0°C (75°F)
Dewpoint: 21.0°C (70°F) [RH = 83%]
Pressure (altimeter): 30.15 inches Hg (1021.0 mb)
Winds: from the SE (140 degrees) at 12 MPH (10 knots; 5.1 m/s)
Visibility: 6 or more miles (10+ km)
Ceiling: at least 12,000 feet AGL
Clouds: few clouds at 2500 feet AGL
Weather: no significant weather observed at this time

METAR text: RJGG 021030Z 14009KT 9999 FEW025 BKN/// 24/21 Q1021 NOSIG
Conditions at: RJGG (NAGOYA/CHUBU , JP) observed 1030 UTC 02 October 2022
Temperature: 24.0°C (75°F)
Dewpoint: 21.0°C (70°F) [RH = 83%]
Pressure (altimeter): 30.15 inches Hg (1021.0 mb)
Winds: from the SE (140 degrees) at 10 MPH (9 knots; 4.6 m/s)
Visibility: 6 or more miles (10+ km)
Ceiling: at least 12,000 feet AGL
Clouds: few clouds at 2500 feet AGL
Weather: no significant weather observed at this time

METAR text: RJGG 021000Z 14009KT 9999 FEW025 SCT/// 24/21 Q1021 NOSIG
Conditions at: RJGG (NAGOYA/CHUBU , JP) observed 1000 UTC 02 October 2022
Temperature: 24.0°C (75°F)
Dewpoint: 21.0°C (70°F) [RH = 83%]
Pressure (altimeter): 30.15 inches Hg (1021.0 mb)
Winds: from the SE (140 degrees) at 10 MPH (9 knots; 4.6 m/s)
Visibility: 6 or more miles (10+ km)
Ceiling: at least 12,000 feet AGL
Clouds: few clouds at 2500 feet AGL
Weather: no significant weather observed at this time

METAR text: RJGG 020930Z 14010KT 9999 FEW025 SCT/// 24/21 Q1020 NOSIG
Conditions at: RJGG (NAGOYA/CHUBU , JP) observed 0930 UTC 02 October 2022
Temperature: 24.0°C (75°F)
Dewpoint: 21.0°C (70°F) [RH = 83%]
Pressure (altimeter): 30.12 inches Hg (1020.0 mb)
Winds: from the SE (140 degrees) at 12 MPH (10 knots; 5.1 m/s)
Visibility: 6 or more miles (10+ km)
Ceiling: at least 12,000 feet AGL
Clouds: few clouds at 2500 feet AGL
Weather: no significant weather observed at this time

METAR text: RJGG 020900Z 16011KT 9999 FEW025 24/21 Q1020 NOSIG
Conditions at: RJGG (NAGOYA/CHUBU , JP) observed 0900 UTC 02 October 2022
Temperature: 24.0°C (75°F)
Dewpoint: 21.0°C (70°F) [RH = 83%]
Pressure (altimeter): 30.12 inches Hg (1020.0 mb)
Winds: from the SSE (160 degrees) at 13 MPH (11 knots; 5.7 m/s)
Visibility: 6 or more miles (10+ km)
Ceiling: at least 12,000 feet AGL
Clouds: few clouds at 2500 feet AGL
Weather: no significant weather observed at this time

METAR text: RJGG 020830Z 16011KT 9999 FEW025 24/20 Q1020 NOSIG
Conditions at: RJGG (NAGOYA/CHUBU , JP) observed 0830 UTC 02 October 2022
Temperature: 24.0°C (75°F)
Dewpoint: 20.0°C (68°F) [RH = 78%]
Pressure (altimeter): 30.12 inches Hg (1020.0 mb)
Winds: from the SSE (160 degrees) at 13 MPH (11 knots; 5.7 m/s)
Visibility: 6 or more miles (10+ km)
Ceiling: at least 12,000 feet AGL
Clouds: few clouds at 2500 feet AGL
Weather: no significant weather observed at this time

METAR text: RJGG 020800Z 16011KT 9999 FEW030 25/21 Q1020 NOSIG
Conditions at: RJGG (NAGOYA/CHUBU , JP) observed 0800 UTC 02 October 2022
Temperature: 25.0°C (77°F)
Dewpoint: 21.0°C (70°F) [RH = 79%]
Pressure (altimeter): 30.12 inches Hg (1020.0 mb)
Winds: from the SSE (160 degrees) at 13 MPH (11 knots; 5.7 m/s)
Visibility: 6 or more miles (10+ km)
Ceiling: at least 12,000 feet AGL
Clouds: few clouds at 3000 feet AGL
Weather: no significant weather observed at this time

METAR text: RJGG 020730Z 17011KT 9999 FEW030 26/21 Q1019 NOSIG
Conditions at: RJGG (NAGOYA/CHUBU , JP) observed 0730 UTC 02 October 2022
Temperature: 26.0°C (79°F)
Dewpoint: 21.0°C (70°F) [RH = 74%]
Pressure (altimeter): 30.09 inches Hg (1019.0 mb)
Winds: from the S (170 degrees) at 13 MPH (11 knots; 5.7 m/s)
Visibility: 6 or more miles (10+ km)
Ceiling: at least 12,000 feet AGL
Clouds: few clouds at 3000 feet AGL
Weather: no significant weather observed at this time

METAR text: RJGG 020700Z 18009KT 9999 FEW030 BKN/// 26/20 Q1019 NOSIG
Conditions at: RJGG (NAGOYA/CHUBU , JP) observed 0700 UTC 02 October 2022
Temperature: 26.0°C (79°F)
Dewpoint: 20.0°C (68°F) [RH = 70%]
Pressure (altimeter): 30.09 inches Hg (1019.0 mb)
Winds: from the S (180 degrees) at 10 MPH (9 knots; 4.6 m/s)
Visibility: 6 or more miles (10+ km)
Ceiling: at least 12,000 feet AGL
Clouds: few clouds at 3000 feet AGL
Weather: no significant weather observed at this time

METAR text: RJGG 020630Z 18008KT 9999 FEW030 BKN/// 26/21 Q1019 NOSIG
Conditions at: RJGG (NAGOYA/CHUBU , JP) observed 0630 UTC 02 October 2022
Temperature: 26.0°C (79°F)
Dewpoint: 21.0°C (70°F) [RH = 74%]
Pressure (altimeter): 30.09 inches Hg (1019.0 mb)
Winds: from the S (180 degrees) at 9 MPH (8 knots; 4.1 m/s)
Visibility: 6 or more miles (10+ km)
Ceiling: at least 12,000 feet AGL
Clouds: few clouds at 3000 feet AGL
Weather: no significant weather observed at this time

METAR text: RJGG 020600Z 18006KT 9999 FEW030 BKN/// 26/20 Q1019 NOSIG
Conditions at: RJGG (NAGOYA/CHUBU , JP) observed 0600 UTC 02 October 2022
Temperature: 26.0°C (79°F)
Dewpoint: 20.0°C (68°F) [RH = 70%]
Pressure (altimeter): 30.09 inches Hg (1019.0 mb)
Winds: from the S (180 degrees) at 7 MPH (6 knots; 3.1 m/s)
Visibility: 6 or more miles (10+ km)
Ceiling: at least 12,000 feet AGL
Clouds: few clouds at 3000 feet AGL
Weather: no significant weather observed at this time

METAR text: RJGG 020530Z 21004KT 9999 FEW030 SCT/// 26/21 Q1019 NOSIG
Conditions at: RJGG (NAGOYA/CHUBU , JP) observed 0530 UTC 02 October 2022
Temperature: 26.0°C (79°F)
Dewpoint: 21.0°C (70°F) [RH = 74%]
Pressure (altimeter): 30.09 inches Hg (1019.0 mb)
Winds: from the SSW (210 degrees) at 5 MPH (4 knots; 2.1 m/s)
Visibility: 6 or more miles (10+ km)
Ceiling: at least 12,000 feet AGL
Clouds: few clouds at 3000 feet AGL
Weather: no significant weather observed at this time

METAR text: RJGG 020500Z 22005KT 9999 FEW030 26/21 Q1019 NOSIG
Conditions at: RJGG (NAGOYA/CHUBU , JP) observed 0500 UTC 02 October 2022
Temperature: 26.0°C (79°F)
Dewpoint: 21.0°C (70°F) [RH = 74%]
Pressure (altimeter): 30.09 inches Hg (1019.0 mb)
Winds: from the SW (220 degrees) at 6 MPH (5 knots; 2.6 m/s)
Visibility: 6 or more miles (10+ km)
Ceiling: at least 12,000 feet AGL
Clouds: few clouds at 3000 feet AGL
Weather: no significant weather observed at this time

METAR text: RJGG 020430Z 23004KT 9999 FEW030 26/20 Q1019 NOSIG
Conditions at: RJGG (NAGOYA/CHUBU , JP) observed 0430 UTC 02 October 2022
Temperature: 26.0°C (79°F)
Dewpoint: 20.0°C (68°F) [RH = 70%]
Pressure (altimeter): 30.09 inches Hg (1019.0 mb)
Winds: from the SW (230 degrees) at 5 MPH (4 knots; 2.1 m/s)
Visibility: 6 or more miles (10+ km)
Ceiling: at least 12,000 feet AGL
Clouds: few clouds at 3000 feet AGL
Weather: no significant weather observed at this time

METAR text: RJGG 020400Z 24005KT 9999 FEW030 26/20 Q1019 NOSIG
Conditions at: RJGG (NAGOYA/CHUBU , JP) observed 0400 UTC 02 October 2022
Temperature: 26.0°C (79°F)
Dewpoint: 20.0°C (68°F) [RH = 70%]
Pressure (altimeter): 30.09 inches Hg (1019.0 mb)
Winds: from the WSW (240 degrees) at 6 MPH (5 knots; 2.6 m/s)
Visibility: 6 or more miles (10+ km)
Ceiling: at least 12,000 feet AGL
Clouds: few clouds at 3000 feet AGL
Weather: no significant weather observed at this time

METAR text: RJGG 020330Z 25005KT 9999 FEW030 SCT/// 26/20 Q1020 NOSIG
Conditions at: RJGG (NAGOYA/CHUBU , JP) observed 0330 UTC 02 October 2022
Temperature: 26.0°C (79°F)
Dewpoint: 20.0°C (68°F) [RH = 70%]
Pressure (altimeter): 30.12 inches Hg (1020.0 mb)
Winds: from the WSW (250 degrees) at 6 MPH (5 knots; 2.6 m/s)
Visibility: 6 or more miles (10+ km)
Ceiling: at least 12,000 feet AGL
Clouds: few clouds at 3000 feet AGL
Weather: no significant weather observed at this time

METAR text: RJGG 020300Z 27004KT 9999 FEW030 25/20 Q1020 BECMG TL0330 24005KT
Conditions at: RJGG (NAGOYA/CHUBU , JP) observed 0300 UTC 02 October 2022
Temperature: 25.0°C (77°F)
Dewpoint: 20.0°C (68°F) [RH = 74%]
Pressure (altimeter): 30.12 inches Hg (1020.0 mb)
Winds: from the W (270 degrees) at 5 MPH (4 knots; 2.1 m/s)
Visibility: 6 or more miles (10+ km)
Ceiling: at least 12,000 feet AGL
Clouds: few clouds at 3000 feet AGL
Weather: no significant weather observed at this time

METAR text: RJGG 020230Z 28004KT 9999 FEW030 25/19 Q1020 BECMG TL0330 24005KT
Conditions at: RJGG (NAGOYA/CHUBU , JP) observed 0230 UTC 02 October 2022
Temperature: 25.0°C (77°F)
Dewpoint: 19.0°C (66°F) [RH = 69%]
Pressure (altimeter): 30.12 inches Hg (1020.0 mb)
Winds: from the W (280 degrees) at 5 MPH (4 knots; 2.1 m/s)
Visibility: 6 or more miles (10+ km)
Ceiling: at least 12,000 feet AGL
Clouds: few clouds at 3000 feet AGL
Weather: no significant weather observed at this time

METAR text: RJGG 020200Z 30005KT 9999 FEW030 25/20 Q1020 BECMG 24005KT
Conditions at: RJGG (NAGOYA/CHUBU , JP) observed 0200 UTC 02 October 2022
Temperature: 25.0°C (77°F)
Dewpoint: 20.0°C (68°F) [RH = 74%]
Pressure (altimeter): 30.12 inches Hg (1020.0 mb)
Winds: from the WNW (300 degrees) at 6 MPH (5 knots; 2.6 m/s)
Visibility: 6 or more miles (10+ km)
Ceiling: at least 12,000 feet AGL
Clouds: few clouds at 3000 feet AGL
Weather: no significant weather observed at this time

METAR text: RJGG 020130Z 30006KT 9999 FEW030 25/19 Q1020 BECMG 24005KT
Conditions at: RJGG (NAGOYA/CHUBU , JP) observed 0130 UTC 02 October 2022
Temperature: 25.0°C (77°F)
Dewpoint: 19.0°C (66°F) [RH = 69%]
Pressure (altimeter): 30.12 inches Hg (1020.0 mb)
Winds: from the WNW (300 degrees) at 7 MPH (6 knots; 3.1 m/s)
Visibility: 6 or more miles (10+ km)
Ceiling: at least 12,000 feet AGL
Clouds: few clouds at 3000 feet AGL
Weather: no significant weather observed at this time

METAR text: RJGG 020100Z 32006KT 9999 FEW020 24/19 Q1020 NOSIG
Conditions at: RJGG (NAGOYA/CHUBU , JP) observed 0100 UTC 02 October 2022
Temperature: 24.0°C (75°F)
Dewpoint: 19.0°C (66°F) [RH = 74%]
Pressure (altimeter): 30.12 inches Hg (1020.0 mb)
Winds: from the NW (320 degrees) at 7 MPH (6 knots; 3.1 m/s)
Visibility: 6 or more miles (10+ km)
Ceiling: at least 12,000 feet AGL
Clouds: few clouds at 2000 feet AGL
Weather: no significant weather observed at this time

METAR text: RJGG 020030Z 35004KT 300V040 9999 FEW020 SCT/// 24/18 Q1020 NOSIG
Conditions at: RJGG (NAGOYA/CHUBU , JP) observed 0030 UTC 02 October 2022
Temperature: 24.0°C (75°F)
Dewpoint: 18.0°C (64°F) [RH = 69%]
Pressure (altimeter): 30.12 inches Hg (1020.0 mb)
Winds: from the N (350 degrees) at 5 MPH (4 knots; 2.1 m/s)
Visibility: 6 or more miles (10+ km)
Ceiling: at least 12,000 feet AGL
Clouds: few clouds at 2000 feet AGL
Weather: no significant weather observed at this time

METAR text: RJGG 020000Z 36006KT 320V030 9999 FEW020 24/18 Q1020 NOSIG
Conditions at: RJGG (NAGOYA/CHUBU , JP) observed 0000 UTC 02 October 2022
Temperature: 24.0°C (75°F)
Dewpoint: 18.0°C (64°F) [RH = 69%]
Pressure (altimeter): 30.12 inches Hg (1020.0 mb)
Winds: from the N (360 degrees) at 7 MPH (6 knots; 3.1 m/s)
Visibility: 6 or more miles (10+ km)
Ceiling: at least 12,000 feet AGL
Clouds: few clouds at 2000 feet AGL
Weather: no significant weather observed at this time

METAR text: RJGG 012330Z 35008KT 9999 FEW020 SCT/// 24/18 Q1020 NOSIG
Conditions at: RJGG (NAGOYA/CHUBU , JP) observed 2330 UTC 01 October 2022
Temperature: 24.0°C (75°F)
Dewpoint: 18.0°C (64°F) [RH = 69%]
Pressure (altimeter): 30.12 inches Hg (1020.0 mb)
Winds: from the N (350 degrees) at 9 MPH (8 knots; 4.1 m/s)
Visibility: 6 or more miles (10+ km)
Ceiling: at least 12,000 feet AGL
Clouds: few clouds at 2000 feet AGL
Weather: no significant weather observed at this time

METAR text: RJGG 012300Z 35009KT 9999 FEW020 BKN/// 22/18 Q1020 NOSIG
Conditions at: RJGG (NAGOYA/CHUBU , JP) observed 2300 UTC 01 October 2022
Temperature: 22.0°C (72°F)
Dewpoint: 18.0°C (64°F) [RH = 78%]
Pressure (altimeter): 30.12 inches Hg (1020.0 mb)
Winds: from the N (350 degrees) at 10 MPH (9 knots; 4.6 m/s)
Visibility: 6 or more miles (10+ km)
Ceiling: at least 12,000 feet AGL
Clouds: few clouds at 2000 feet AGL
Weather: no significant weather observed at this time

METAR text: RJGG 012230Z 36006KT 9999 FEW025 SCT/// 22/18 Q1020 NOSIG
Conditions at: RJGG (NAGOYA/CHUBU , JP) observed 2230 UTC 01 October 2022
Temperature: 22.0°C (72°F)
Dewpoint: 18.0°C (64°F) [RH = 78%]
Pressure (altimeter): 30.12 inches Hg (1020.0 mb)
Winds: from the N (360 degrees) at 7 MPH (6 knots; 3.1 m/s)
Visibility: 6 or more miles (10+ km)
Ceiling: at least 12,000 feet AGL
Clouds: few clouds at 2500 feet AGL
Weather: no significant weather observed at this time

METAR text: RJGG 012200Z 02005KT 9999 FEW025 22/18 Q1020 NOSIG
Conditions at: RJGG (NAGOYA/CHUBU , JP) observed 2200 UTC 01 October 2022
Temperature: 22.0°C (72°F)
Dewpoint: 18.0°C (64°F) [RH = 78%]
Pressure (altimeter): 30.12 inches Hg (1020.0 mb)
Winds: from the NNE (20 degrees) at 6 MPH (5 knots; 2.6 m/s)
Visibility: 6 or more miles (10+ km)
Ceiling: at least 12,000 feet AGL
Clouds: few clouds at 2500 feet AGL
Weather: no significant weather observed at this time

METAR text: RJGG 012130Z 01005KT 9999 FEW025 21/18 Q1019 NOSIG
Conditions at: RJGG (NAGOYA/CHUBU , JP) observed 2130 UTC 01 October 2022
Temperature: 21.0°C (70°F)
Dewpoint: 18.0°C (64°F) [RH = 83%]
Pressure (altimeter): 30.09 inches Hg (1019.0 mb)
Winds: from the N (10 degrees) at 6 MPH (5 knots; 2.6 m/s)
Visibility: 6 or more miles (10+ km)
Ceiling: at least 12,000 feet AGL
Clouds: few clouds at 2500 feet AGL
Weather: no significant weather observed at this time

METAR text: RJGG 012100Z 01005KT 9999 FEW025 SCT/// 21/18 Q1019 NOSIG
Conditions at: RJGG (NAGOYA/CHUBU , JP) observed 2100 UTC 01 October 2022
Temperature: 21.0°C (70°F)
Dewpoint: 18.0°C (64°F) [RH = 83%]
Pressure (altimeter): 30.09 inches Hg (1019.0 mb)
Winds: from the N (10 degrees) at 6 MPH (5 knots; 2.6 m/s)
Visibility: 6 or more miles (10+ km)
Ceiling: at least 12,000 feet AGL
Clouds: few clouds at 2500 feet AGL
Weather: no significant weather observed at this time

METAR text: RJGG 012030Z AUTO 01008KT 9999 NCD 21/18 Q1019 NOSIG
Conditions at: RJGG (NAGOYA/CHUBU , JP) observed 2030 UTC 01 October 2022
Temperature: 21.0°C (70°F)
Dewpoint: 18.0°C (64°F) [RH = 83%]
Pressure (altimeter): 30.09 inches Hg (1019.0 mb)
Winds: from the N (10 degrees) at 9 MPH (8 knots; 4.1 m/s)
Visibility: 6 or more miles (10+ km)
Ceiling: at least 12,000 feet AGL
Clouds: sky clear below 12,000 feet AGL
Weather: no significant weather observed at this time

METAR text: RJGG 012000Z AUTO 35009KT 9999 NCD 21/18 Q1018 NOSIG
Conditions at: RJGG (NAGOYA/CHUBU , JP) observed 2000 UTC 01 October 2022
Temperature: 21.0°C (70°F)
Dewpoint: 18.0°C (64°F) [RH = 83%]
Pressure (altimeter): 30.06 inches Hg (1018.0 mb)
Winds: from the N (350 degrees) at 10 MPH (9 knots; 4.6 m/s)
Visibility: 6 or more miles (10+ km)
Ceiling: at least 12,000 feet AGL
Clouds: sky clear below 12,000 feet AGL
Weather: no significant weather observed at this time

METAR text: RJGG 011930Z AUTO 35009KT 9999 NCD 21/18 Q1018 NOSIG
Conditions at: RJGG (NAGOYA/CHUBU , JP) observed 1930 UTC 01 October 2022
Temperature: 21.0°C (70°F)
Dewpoint: 18.0°C (64°F) [RH = 83%]
Pressure (altimeter): 30.06 inches Hg (1018.0 mb)
Winds: from the N (350 degrees) at 10 MPH (9 knots; 4.6 m/s)
Visibility: 6 or more miles (10+ km)
Ceiling: at least 12,000 feet AGL
Clouds: sky clear below 12,000 feet AGL
Weather: no significant weather observed at this time

METAR text: RJGG 011900Z AUTO 01006KT 9999 NCD 21/18 Q1018 NOSIG
Conditions at: RJGG (NAGOYA/CHUBU , JP) observed 1900 UTC 01 October 2022
Temperature: 21.0°C (70°F)
Dewpoint: 18.0°C (64°F) [RH = 83%]
Pressure (altimeter): 30.06 inches Hg (1018.0 mb)
Winds: from the N (10 degrees) at 7 MPH (6 knots; 3.1 m/s)
Visibility: 6 or more miles (10+ km)
Ceiling: at least 12,000 feet AGL
Clouds: sky clear below 12,000 feet AGL
Weather: no significant weather observed at this time

METAR text: RJGG 011830Z AUTO 01007KT 9999 NCD 21/18 Q1018 NOSIG
Conditions at: RJGG (NAGOYA/CHUBU , JP) observed 1830 UTC 01 October 2022
Temperature: 21.0°C (70°F)
Dewpoint: 18.0°C (64°F) [RH = 83%]
Pressure (altimeter): 30.06 inches Hg (1018.0 mb)
Winds: from the N (10 degrees) at 8 MPH (7 knots; 3.6 m/s)
Visibility: 6 or more miles (10+ km)
Ceiling: at least 12,000 feet AGL
Clouds: sky clear below 12,000 feet AGL
Weather: no significant weather observed at this time

METAR text: RJGG 011800Z AUTO 01005KT 9999 NCD 21/18 Q1018 NOSIG
Conditions at: RJGG (NAGOYA/CHUBU , JP) observed 1800 UTC 01 October 2022
Temperature: 21.0°C (70°F)
Dewpoint: 18.0°C (64°F) [RH = 83%]
Pressure (altimeter): 30.06 inches Hg (1018.0 mb)
Winds: from the N (10 degrees) at 6 MPH (5 knots; 2.6 m/s)
Visibility: 6 or more miles (10+ km)
Ceiling: at least 12,000 feet AGL
Clouds: sky clear below 12,000 feet AGL
Weather: no significant weather observed at this time

METAR text: RJGG 011730Z AUTO 02006KT 9999 NCD 22/19 Q1018 NOSIG
Conditions at: RJGG (NAGOYA/CHUBU , JP) observed 1730 UTC 01 October 2022
Temperature: 22.0°C (72°F)
Dewpoint: 19.0°C (66°F) [RH = 83%]
Pressure (altimeter): 30.06 inches Hg (1018.0 mb)
Winds: from the NNE (20 degrees) at 7 MPH (6 knots; 3.1 m/s)
Visibility: 6 or more miles (10+ km)
Ceiling: at least 12,000 feet AGL
Clouds: sky clear below 12,000 feet AGL
Weather: no significant weather observed at this time

METAR text: RJGG 011700Z AUTO 01007KT 9999 NCD 22/19 Q1018 NOSIG
Conditions at: RJGG (NAGOYA/CHUBU , JP) observed 1700 UTC 01 October 2022
Temperature: 22.0°C (72°F)
Dewpoint: 19.0°C (66°F) [RH = 83%]
Pressure (altimeter): 30.06 inches Hg (1018.0 mb)
Winds: from the N (10 degrees) at 8 MPH (7 knots; 3.6 m/s)
Visibility: 6 or more miles (10+ km)
Ceiling: at least 12,000 feet AGL
Clouds: sky clear below 12,000 feet AGL
Weather: no significant weather observed at this time

METAR text: RJGG 011630Z AUTO 36005KT 9999 NCD 20/18 Q1018 NOSIG
Conditions at: RJGG (NAGOYA/CHUBU , JP) observed 1630 UTC 01 October 2022
Temperature: 20.0°C (68°F)
Dewpoint: 18.0°C (64°F) [RH = 88%]
Pressure (altimeter): 30.06 inches Hg (1018.0 mb)
Winds: from the N (360 degrees) at 6 MPH (5 knots; 2.6 m/s)
Visibility: 6 or more miles (10+ km)
Ceiling: at least 12,000 feet AGL
Clouds: sky clear below 12,000 feet AGL
Weather: no significant weather observed at this time

METAR text: RJGG 011600Z AUTO 35003KT 9999 NCD 22/18 Q1017 NOSIG
Conditions at: RJGG (NAGOYA/CHUBU , JP) observed 1600 UTC 01 October 2022
Temperature: 22.0°C (72°F)
Dewpoint: 18.0°C (64°F) [RH = 78%]
Pressure (altimeter): 30.03 inches Hg (1017.0 mb)
Winds: from the N (350 degrees) at 3 MPH (3 knots; 1.5 m/s)
Visibility: 6 or more miles (10+ km)
Ceiling: at least 12,000 feet AGL
Clouds: sky clear below 12,000 feet AGL
Weather: no significant weather observed at this time

METAR text: RJGG 011530Z AUTO 03004KT 350V060 9999 NCD 22/18 Q1017 NOSIG
Conditions at: RJGG (NAGOYA/CHUBU , JP) observed 1530 UTC 01 October 2022
Temperature: 22.0°C (72°F)
Dewpoint: 18.0°C (64°F) [RH = 78%]
Pressure (altimeter): 30.03 inches Hg (1017.0 mb)
Winds: from the NNE (30 degrees) at 5 MPH (4 knots; 2.1 m/s)
Visibility: 6 or more miles (10+ km)
Ceiling: at least 12,000 feet AGL
Clouds: sky clear below 12,000 feet AGL
Weather: no significant weather observed at this time

METAR text: RJGG 011500Z AUTO 32005KT 9999 NCD 23/19 Q1017 NOSIG
Conditions at: RJGG (NAGOYA/CHUBU , JP) observed 1500 UTC 01 October 2022
Temperature: 23.0°C (73°F)
Dewpoint: 19.0°C (66°F) [RH = 78%]
Pressure (altimeter): 30.03 inches Hg (1017.0 mb)
Winds: from the NW (320 degrees) at 6 MPH (5 knots; 2.6 m/s)
Visibility: 6 or more miles (10+ km)
Ceiling: at least 12,000 feet AGL
Clouds: sky clear below 12,000 feet AGL
Weather: no significant weather observed at this time

METAR text: RJGG 011430Z AUTO 32003KT 9999 NCD 24/18 Q1017 NOSIG
Conditions at: RJGG (NAGOYA/CHUBU , JP) observed 1430 UTC 01 October 2022
Temperature: 24.0°C (75°F)
Dewpoint: 18.0°C (64°F) [RH = 69%]
Pressure (altimeter): 30.03 inches Hg (1017.0 mb)
Winds: from the NW (320 degrees) at 3 MPH (3 knots; 1.5 m/s)
Visibility: 6 or more miles (10+ km)
Ceiling: at least 12,000 feet AGL
Clouds: sky clear below 12,000 feet AGL
Weather: no significant weather observed at this time

METAR text: RJGG 011400Z AUTO 33003KT 9999 NSC 24/17 Q1017 NOSIG
Conditions at: RJGG (NAGOYA/CHUBU , JP) observed 1400 UTC 01 October 2022
Temperature: 24.0°C (75°F)
Dewpoint: 17.0°C (63°F) [RH = 65%]
Pressure (altimeter): 30.03 inches Hg (1017.0 mb)
Winds: from the NNW (330 degrees) at 3 MPH (3 knots; 1.5 m/s)
Visibility: 6 or more miles (10+ km)
Ceiling: at least 12,000 feet AGL
Clouds: sky clear below 12,000 feet AGL
Weather: no significant weather observed at this time

METAR text: RJGG 011330Z 32004KT 9999 FEW025 SCT070 24/17 Q1017 NOSIG
Conditions at: RJGG (NAGOYA/CHUBU , JP) observed 1330 UTC 01 October 2022
Temperature: 24.0°C (75°F)
Dewpoint: 17.0°C (63°F) [RH = 65%]
Pressure (altimeter): 30.03 inches Hg (1017.0 mb)
Winds: from the NW (320 degrees) at 5 MPH (4 knots; 2.1 m/s)
Visibility: 6 or more miles (10+ km)
Ceiling: at least 12,000 feet AGL
Clouds: few clouds at 2500 feet AGL
scattered clouds at 7000 feet AGL
Weather: no significant weather observed at this time

METAR text: RJGG 011300Z 29004KT 9999 FEW025 25/17 Q1017 NOSIG
Conditions at: RJGG (NAGOYA/CHUBU , JP) observed 1300 UTC 01 October 2022
Temperature: 25.0°C (77°F)
Dewpoint: 17.0°C (63°F) [RH = 61%]
Pressure (altimeter): 30.03 inches Hg (1017.0 mb)
Winds: from the WNW (290 degrees) at 5 MPH (4 knots; 2.1 m/s)
Visibility: 6 or more miles (10+ km)
Ceiling: at least 12,000 feet AGL
Clouds: few clouds at 2500 feet AGL
Weather: no significant weather observed at this time

METAR text: RJGG 011230Z 30007KT 9999 FEW025 25/18 Q1016 NOSIG
Conditions at: RJGG (NAGOYA/CHUBU , JP) observed 1230 UTC 01 October 2022
Temperature: 25.0°C (77°F)
Dewpoint: 18.0°C (64°F) [RH = 65%]
Pressure (altimeter): 30.00 inches Hg (1016.0 mb)
Winds: from the WNW (300 degrees) at 8 MPH (7 knots; 3.6 m/s)
Visibility: 6 or more miles (10+ km)
Ceiling: at least 12,000 feet AGL
Clouds: few clouds at 2500 feet AGL
Weather: no significant weather observed at this time

METAR text: RJGG 011200Z 31013KT 9999 FEW025 25/18 Q1017 NOSIG
Conditions at: RJGG (NAGOYA/CHUBU , JP) observed 1200 UTC 01 October 2022
Temperature: 25.0°C (77°F)
Dewpoint: 18.0°C (64°F) [RH = 65%]
Pressure (altimeter): 30.03 inches Hg (1017.0 mb)
Winds: from the NW (310 degrees) at 15 MPH (13 knots; 6.7 m/s)
Visibility: 6 or more miles (10+ km)
Ceiling: at least 12,000 feet AGL
Clouds: few clouds at 2500 feet AGL
Weather: no significant weather observed at this time

METAR text: RJGG 011130Z 32013KT 9999 FEW025 25/17 Q1016 NOSIG
Conditions at: RJGG (NAGOYA/CHUBU , JP) observed 1130 UTC 01 October 2022
Temperature: 25.0°C (77°F)
Dewpoint: 17.0°C (63°F) [RH = 61%]
Pressure (altimeter): 30.00 inches Hg (1016.0 mb)
Winds: from the NW (320 degrees) at 15 MPH (13 knots; 6.7 m/s)
Visibility: 6 or more miles (10+ km)
Ceiling: at least 12,000 feet AGL
Clouds: few clouds at 2500 feet AGL
Weather: no significant weather observed at this time

METAR text: RJGG 011100Z 33012KT 9999 FEW025 25/17 Q1016 NOSIG
Conditions at: RJGG (NAGOYA/CHUBU , JP) observed 1100 UTC 01 October 2022
Temperature: 25.0°C (77°F)
Dewpoint: 17.0°C (63°F) [RH = 61%]
Pressure (altimeter): 30.00 inches Hg (1016.0 mb)
Winds: from the NNW (330 degrees) at 14 MPH (12 knots; 6.2 m/s)
Visibility: 6 or more miles (10+ km)
Ceiling: at least 12,000 feet AGL
Clouds: few clouds at 2500 feet AGL
Weather: no significant weather observed at this time

METAR text: RJGG 011030Z 33010KT 9999 FEW025 26/18 Q1016 NOSIG
Conditions at: RJGG (NAGOYA/CHUBU , JP) observed 1030 UTC 01 October 2022
Temperature: 26.0°C (79°F)
Dewpoint: 18.0°C (64°F) [RH = 61%]
Pressure (altimeter): 30.00 inches Hg (1016.0 mb)
Winds: from the NNW (330 degrees) at 12 MPH (10 knots; 5.1 m/s)
Visibility: 6 or more miles (10+ km)
Ceiling: at least 12,000 feet AGL
Clouds: few clouds at 2500 feet AGL
Weather: no significant weather observed at this time

METAR text: RJGG 011000Z 32008KT 9999 FEW025 26/19 Q1015 NOSIG
Conditions at: RJGG (NAGOYA/CHUBU , JP) observed 1000 UTC 01 October 2022
Temperature: 26.0°C (79°F)
Dewpoint: 19.0°C (66°F) [RH = 65%]
Pressure (altimeter): 29.97 inches Hg (1015.0 mb)
Winds: from the NW (320 degrees) at 9 MPH (8 knots; 4.1 m/s)
Visibility: 6 or more miles (10+ km)
Ceiling: at least 12,000 feet AGL
Clouds: few clouds at 2500 feet AGL
Weather: no significant weather observed at this time

METAR text: RJGG 010930Z 32010KT 9999 FEW025 26/19 Q1015 NOSIG
Conditions at: RJGG (NAGOYA/CHUBU , JP) observed 0930 UTC 01 October 2022
Temperature: 26.0°C (79°F)
Dewpoint: 19.0°C (66°F) [RH = 65%]
Pressure (altimeter): 29.97 inches Hg (1015.0 mb)
Winds: from the NW (320 degrees) at 12 MPH (10 knots; 5.1 m/s)
Visibility: 6 or more miles (10+ km)
Ceiling: at least 12,000 feet AGL
Clouds: few clouds at 2500 feet AGL
Weather: no significant weather observed at this time

METAR text: RJGG 010900Z 25006KT 9999 FEW025 26/21 Q1015 BECMG TL1000 32008KT
Conditions at: RJGG (NAGOYA/CHUBU , JP) observed 0900 UTC 01 October 2022
Temperature: 26.0°C (79°F)
Dewpoint: 21.0°C (70°F) [RH = 74%]
Pressure (altimeter): 29.97 inches Hg (1015.0 mb)
Winds: from the WSW (250 degrees) at 7 MPH (6 knots; 3.1 m/s)
Visibility: 6 or more miles (10+ km)
Ceiling: at least 12,000 feet AGL
Clouds: few clouds at 2500 feet AGL
Weather: no significant weather observed at this time

METAR text: RJGG 010830Z 24007KT 9999 FEW025 27/20 Q1015 BECMG 32008KT
Conditions at: RJGG (NAGOYA/CHUBU , JP) observed 0830 UTC 01 October 2022
Temperature: 27.0°C (81°F)
Dewpoint: 20.0°C (68°F) [RH = 66%]
Pressure (altimeter): 29.97 inches Hg (1015.0 mb)
Winds: from the WSW (240 degrees) at 8 MPH (7 knots; 3.6 m/s)
Visibility: 6 or more miles (10+ km)
Ceiling: at least 12,000 feet AGL
Clouds: few clouds at 2500 feet AGL
Weather: no significant weather observed at this time

METAR text: RJGG 010800Z 22007KT 9999 FEW025 27/21 Q1015 BECMG 32008KT
Conditions at: RJGG (NAGOYA/CHUBU , JP) observed 0800 UTC 01 October 2022
Temperature: 27.0°C (81°F)
Dewpoint: 21.0°C (70°F) [RH = 70%]
Pressure (altimeter): 29.97 inches Hg (1015.0 mb)
Winds: from the SW (220 degrees) at 8 MPH (7 knots; 3.6 m/s)
Visibility: 6 or more miles (10+ km)
Ceiling: at least 12,000 feet AGL
Clouds: few clouds at 2500 feet AGL
Weather: no significant weather observed at this time

Forecast for: RJGG (NAGOYA/CHUBU , JP)
Text: TAF RJGG 021706Z 0218/0400 06004KT 9999 FEW020 BKN040
Forecast period: 1800 to 2200 UTC 02 October 2022
Forecast type: FROM: standard forecast or significant change
Winds: from the ENE (60 degrees) at 5 MPH (4 knots; 2.1 m/s)
Visibility: 6 or more miles (10+ km)
Ceiling: 4000 feet AGL
Clouds: few clouds at 2000 feet AGL
broken clouds at 4000 feet AGL
Weather: no significant weather forecast for this period
Text: BECMG 0222/0300 14012KT
Forecast period: 2200 UTC 02 October 2022 to 0000 UTC 04 October 2022
Forecast type: BECOMING: Conditions expected to become as follows by 0000 UTC 03 October 2022
Winds: from the SE (140 degrees) at 14 MPH (12 knots; 6.2 m/s)
Visibility: 6 or more miles (10+ km)
Ceiling: 4000 feet AGL
Clouds: few clouds at 2000 feet AGL
broken clouds at 4000 feet AGL
Weather: no significant weather forecast for this period